createdAt,value
2022-12-04T00:01:17.244Z,73.45
2022-12-04T00:03:44.475Z,74.32
2022-12-04T00:06:17.603Z,72.07
2022-12-04T00:08:45.617Z,67.38
2022-12-04T00:11:15.363Z,68.75
2022-12-04T00:13:42.425Z,65.30
2022-12-04T00:16:13.089Z,71.13
2022-12-04T00:18:40.398Z,67.35
2022-12-04T00:21:10.168Z,59.42
2022-12-04T00:23:37.832Z,62.72
2022-12-04T00:26:14.444Z,71.63
2022-12-04T00:28:42.097Z,61.92
2022-12-04T00:31:14.294Z,72.03
2022-12-04T00:33:41.410Z,63.80
2022-12-04T00:36:11.112Z,72.03
2022-12-04T00:38:38.923Z,69.53
2022-12-04T00:41:08.247Z,65.85
2022-12-04T00:43:35.117Z,64.18
2022-12-04T00:46:02.160Z,68.88
2022-12-04T00:48:29.093Z,68.95
2022-12-04T00:50:56.105Z,70.07
2022-12-04T00:53:23.004Z,67.55
2022-12-04T00:55:49.871Z,66.47
2022-12-04T00:58:16.722Z,69.13
2022-12-04T01:00:43.717Z,71.65
2022-12-04T01:03:10.792Z,67.72
2022-12-04T01:05:42.294Z,62.17
2022-12-04T01:08:09.750Z,66.65
2022-12-04T01:10:39.481Z,70.75
2022-12-04T01:13:06.589Z,64.63
2022-12-04T01:15:33.573Z,57.97
2022-12-04T01:18:00.396Z,61.47
2022-12-04T01:20:27.269Z,65.72
2022-12-04T01:22:54.075Z,63.10
2022-12-04T01:25:20.896Z,69.50
2022-12-04T01:27:47.721Z,61.30
2022-12-04T01:30:14.769Z,64.47
2022-12-04T01:32:42.014Z,61.63
2022-12-04T01:35:09.166Z,60.00
2022-12-04T01:37:36.372Z,62.53
2022-12-04T01:40:04.751Z,67.53
2022-12-04T01:42:31.615Z,63.50
2022-12-04T01:45:36.094Z,62.65
2022-12-04T01:48:11.785Z,60.88
2022-12-04T01:50:39.176Z,57.33
2022-12-04T01:53:06.034Z,63.00
2022-12-04T01:55:33.066Z,60.67
2022-12-04T01:58:02.273Z,63.33
2022-12-04T02:00:29.216Z,57.70
2022-12-04T02:02:56.219Z,60.85
2022-12-04T02:05:23.456Z,61.60
2022-12-04T02:07:56.250Z,63.33
2022-12-04T02:10:31.470Z,61.47
2022-12-04T02:13:11.693Z,56.40
2022-12-04T02:15:55.817Z,56.50
2022-12-04T02:19:04.011Z,55.47
2022-12-04T02:21:33.573Z,56.10
2022-12-04T02:24:37.419Z,62.53
2022-12-04T02:27:15.429Z,59.72
2022-12-04T02:30:00.675Z,58.85
2022-12-04T02:32:41.152Z,59.67
2022-12-04T02:35:44.356Z,58.90
2022-12-04T02:38:20.474Z,55.85
2022-12-04T02:41:11.148Z,59.00
2022-12-04T02:43:51.331Z,53.55
2022-12-04T02:46:26.771Z,67.53
2022-12-04T02:48:59.201Z,59.50
2022-12-04T02:51:30.483Z,52.05
2022-12-04T02:54:07.996Z,61.53
2022-12-04T02:56:41.098Z,60.20
2022-12-04T02:59:17.634Z,63.75
2022-12-04T03:01:50.711Z,54.92
2022-12-04T03:04:30.848Z,60.75
2022-12-04T03:07:02.360Z,66.55
2022-12-04T03:09:35.701Z,59.65
2022-12-04T03:12:27.482Z,65.47
2022-12-04T03:15:24.474Z,59.35
2022-12-04T03:18:03.529Z,68.30
2022-12-04T03:20:33.109Z,64.00
2022-12-04T03:23:09.856Z,65.90
2022-12-04T03:26:00.507Z,67.10
2022-12-04T03:28:39.378Z,55.90
2022-12-04T03:31:09.636Z,65.05
2022-12-04T03:33:43.570Z,66.18
2022-12-04T03:36:36.094Z,65.35
2022-12-04T03:39:11.861Z,53.03
2022-12-04T03:42:15.932Z,65.57
2022-12-04T03:45:10.836Z,62.45
2022-12-04T03:47:48.327Z,56.47
2022-12-04T03:50:31.206Z,73.18
2022-12-04T03:53:25.725Z,58.80
2022-12-04T03:56:09.171Z,67.85
2022-12-04T03:58:38.233Z,67.80
2022-12-04T04:01:09.963Z,59.38
2022-12-04T04:03:43.638Z,60.92
2022-12-04T04:06:25.402Z,62.33
2022-12-04T04:08:56.941Z,66.22
2022-12-04T04:11:24.135Z,67.60
2022-12-04T04:14:35.966Z,57.67
2022-12-04T04:17:26.416Z,61.75
2022-12-04T04:20:19.565Z,64.47
2022-12-04T04:23:07.967Z,62.00
2022-12-04T04:25:40.224Z,66.78
2022-12-04T04:28:29.758Z,67.60
2022-12-04T04:31:04.287Z,69.38
2022-12-04T04:36:16.819Z,66.95
2022-12-04T04:38:51.826Z,68.25
2022-12-04T04:41:26.397Z,62.03
2022-12-04T04:46:35.424Z,66.90
2022-12-04T04:49:06.226Z,73.10
2022-12-04T04:51:35.093Z,65.13
2022-12-04T04:54:06.550Z,66.93
2022-12-04T04:56:41.065Z,71.07
2022-12-04T05:01:35.027Z,79.20
2022-12-04T05:04:06.823Z,73.05
2022-12-04T05:06:34.070Z,64.15
2022-12-04T05:09:00.924Z,72.28
2022-12-04T05:11:28.019Z,74.78
2022-12-04T05:13:54.899Z,71.30
2022-12-04T05:16:22.009Z,79.80
2022-12-04T05:19:07.627Z,91.13
2022-12-04T05:21:34.865Z,73.47
2022-12-04T05:24:02.085Z,76.00
2022-12-04T05:26:29.064Z,69.50
2022-12-04T05:28:55.918Z,70.80
2022-12-04T05:31:22.814Z,72.75
2022-12-04T05:33:49.696Z,70.00
2022-12-04T05:36:16.641Z,83.38
2022-12-04T05:38:43.524Z,77.10
2022-12-04T05:41:10.799Z,77.93
2022-12-04T05:43:37.681Z,74.28
2022-12-04T05:46:06.961Z,82.10
2022-12-04T05:48:34.895Z,85.15
2022-12-04T05:51:09.250Z,73.93
2022-12-04T05:53:37.257Z,79.20
2022-12-04T05:56:05.457Z,71.90
2022-12-04T05:58:35.552Z,76.82
2022-12-04T06:01:09.340Z,81.38
2022-12-04T06:03:36.274Z,84.70
2022-12-04T06:06:03.313Z,80.57
2022-12-04T06:08:30.776Z,78.82
2022-12-04T06:10:57.679Z,84.55
2022-12-04T06:13:24.503Z,91.60
2022-12-04T06:15:51.371Z,85.63
2022-12-04T06:18:18.265Z,99.13
2022-12-04T06:20:45.240Z,103.55
2022-12-04T06:23:12.099Z,122.15
2022-12-04T06:25:38.921Z,107.43
2022-12-04T06:28:05.787Z,110.88
2022-12-04T06:30:34.259Z,94.25
2022-12-04T06:33:01.072Z,95.57
2022-12-04T06:35:27.919Z,90.82
2022-12-04T06:37:54.734Z,84.22
2022-12-04T06:40:21.572Z,90.35
2022-12-04T06:42:48.369Z,86.65
2022-12-04T06:45:15.445Z,94.43
2022-12-04T06:47:42.251Z,88.07
2022-12-04T06:50:09.483Z,80.88
2022-12-04T06:52:36.359Z,76.03
2022-12-04T06:55:03.212Z,77.15
2022-12-04T06:57:30.066Z,69.25
2022-12-04T06:59:57.233Z,75.68
2022-12-04T07:02:24.380Z,75.30
2022-12-04T07:04:56.301Z,84.13
2022-12-04T07:07:23.478Z,81.47
2022-12-04T07:09:50.323Z,90.88
2022-12-04T07:12:17.193Z,89.07
2022-12-04T07:14:44.092Z,92.97
2022-12-04T07:17:10.993Z,96.30
2022-12-04T07:19:38.534Z,98.53
2022-12-04T07:22:06.092Z,92.35
2022-12-04T07:24:32.931Z,85.75
2022-12-04T07:26:59.769Z,93.05
2022-12-04T07:29:26.625Z,85.85
2022-12-04T07:31:53.547Z,96.00
2022-12-04T07:34:20.632Z,100.20
2022-12-04T07:36:47.454Z,95.05
2022-12-04T07:39:14.356Z,84.30
2022-12-04T07:41:41.212Z,90.80
2022-12-04T07:44:08.079Z,79.22
2022-12-04T07:46:34.949Z,107.68
2022-12-04T07:49:01.873Z,103.80
2022-12-04T07:51:30.069Z,102.18
2022-12-04T07:54:03.749Z,102.57
2022-12-04T07:56:30.884Z,105.53
2022-12-04T07:58:57.898Z,102.15
2022-12-04T08:01:24.973Z,104.78
2022-12-04T08:03:55.149Z,113.00
2022-12-04T08:06:23.513Z,99.70
2022-12-04T08:08:50.730Z,113.03
2022-12-04T08:11:21.239Z,101.25
2022-12-04T08:13:48.839Z,87.88
2022-12-04T08:16:16.298Z,89.93
2022-12-04T08:18:46.909Z,82.60
2022-12-04T08:21:16.375Z,90.45
2022-12-04T08:23:44.488Z,95.78
2022-12-04T08:26:12.152Z,90.28
2022-12-04T08:28:39.967Z,91.00
2022-12-04T08:31:10.439Z,98.70
2022-12-04T08:33:37.439Z,92.90
2022-12-04T08:36:09.294Z,97.22
2022-12-04T08:38:36.405Z,94.10
2022-12-04T08:41:05.094Z,100.00
2022-12-04T08:43:32.275Z,98.07
2022-12-04T08:46:01.243Z,92.20
2022-12-04T08:48:29.094Z,96.07
2022-12-04T08:50:56.544Z,96.88
2022-12-04T08:53:24.233Z,101.00
2022-12-04T08:55:52.507Z,91.15
2022-12-04T08:58:20.280Z,89.68
2022-12-04T09:00:47.748Z,99.32
2022-12-04T09:03:16.852Z,92.80
2022-12-04T09:05:45.987Z,97.50
2022-12-04T09:08:17.768Z,85.20
2022-12-04T09:10:45.197Z,85.13
2022-12-04T09:13:12.145Z,73.93
2022-12-04T09:15:40.546Z,88.30
2022-12-04T09:18:08.842Z,86.05
2022-12-04T09:20:36.511Z,85.53
2022-12-04T09:23:05.433Z,92.38
2022-12-04T09:25:36.398Z,90.97
2022-12-04T09:28:03.765Z,79.38
2022-12-04T09:30:30.641Z,89.70
2022-12-04T09:32:57.614Z,86.75
2022-12-04T09:35:24.445Z,85.45
2022-12-04T09:37:51.321Z,79.60
2022-12-04T09:40:37.274Z,84.10
2022-12-04T09:43:37.412Z,79.78
2022-12-04T09:46:10.288Z,80.88
2022-12-04T09:48:41.223Z,82.80
2022-12-04T09:51:18.474Z,86.18
2022-12-04T09:53:57.443Z,87.90
2022-12-04T09:56:29.023Z,72.00
2022-12-04T09:58:59.552Z,74.38
2022-12-04T10:01:40.367Z,87.57
2022-12-04T10:04:10.414Z,85.95
2022-12-04T10:06:49.740Z,77.15
2022-12-04T10:09:27.771Z,72.95
2022-12-04T10:12:26.822Z,87.03
2022-12-04T10:15:24.743Z,85.43
2022-12-04T10:18:16.571Z,74.85
2022-12-04T10:21:24.247Z,77.43
2022-12-04T10:24:00.418Z,73.13
2022-12-04T10:26:36.050Z,87.47
2022-12-04T10:29:33.699Z,80.80
2022-12-04T10:32:19.154Z,77.50
2022-12-04T10:34:48.387Z,77.07
2022-12-04T10:37:15.705Z,80.10
2022-12-04T10:39:51.437Z,75.43
2022-12-04T10:42:25.405Z,79.85
2022-12-04T10:44:53.332Z,78.45
2022-12-04T10:47:22.364Z,75.43
2022-12-04T10:49:49.494Z,75.80
2022-12-04T10:52:16.367Z,83.93
2022-12-04T10:54:56.425Z,75.50
2022-12-04T10:57:34.068Z,83.22
2022-12-04T11:00:00.865Z,89.30
2022-12-04T11:02:33.974Z,72.07
2022-12-04T11:05:03.979Z,73.28
2022-12-04T11:07:47.512Z,78.43
2022-12-04T11:10:36.799Z,72.97
2022-12-04T11:13:17.069Z,77.90
2022-12-04T11:15:50.085Z,78.80
2022-12-04T11:18:20.095Z,83.35
2022-12-04T11:21:17.238Z,71.97
2022-12-04T11:23:49.538Z,77.80
2022-12-04T11:26:38.190Z,77.88
2022-12-04T11:29:07.418Z,75.18
2022-12-04T11:31:34.437Z,71.95
2022-12-04T11:34:05.625Z,66.55
2022-12-04T11:36:36.689Z,68.88
2022-12-04T11:39:22.278Z,65.72
2022-12-04T11:42:17.027Z,65.60
2022-12-04T11:45:01.912Z,73.82
2022-12-04T11:50:21.576Z,72.40
2022-12-04T11:52:54.352Z,62.38
2022-12-04T11:55:29.208Z,67.53
2022-12-04T11:58:00.173Z,69.20
2022-12-04T12:00:28.819Z,76.53
2022-12-04T12:03:07.111Z,83.38
2022-12-04T12:06:13.819Z,72.43
2022-12-04T12:08:46.785Z,71.32
2022-12-04T12:11:16.692Z,82.93
2022-12-04T12:14:02.053Z,71.82
2022-12-04T12:17:10.257Z,83.28
2022-12-04T12:20:04.627Z,72.75
2022-12-04T12:22:52.365Z,82.95
2022-12-04T12:25:28.215Z,89.38
2022-12-04T12:28:05.451Z,82.25
2022-12-04T12:31:05.833Z,78.53
2022-12-04T12:33:42.883Z,78.10
2022-12-04T12:36:11.888Z,80.25
2022-12-04T12:39:09.926Z,84.75
2022-12-04T12:41:45.701Z,87.60
2022-12-04T12:44:22.290Z,79.20
2022-12-04T12:47:00.948Z,77.72
2022-12-04T12:49:58.006Z,74.55
2022-12-04T12:52:51.225Z,75.45
2022-12-04T12:55:50.225Z,82.82
2022-12-04T12:58:51.429Z,81.88
2022-12-04T13:01:32.718Z,86.55
2022-12-04T13:04:22.801Z,78.53
2022-12-04T13:07:05.026Z,81.15
2022-12-04T13:09:35.217Z,82.40
2022-12-04T13:12:09.022Z,76.63
2022-12-04T13:14:36.075Z,81.15
2022-12-04T13:17:16.426Z,74.30
2022-12-04T13:19:51.953Z,83.75
2022-12-04T13:23:10.898Z,84.07
2022-12-04T13:26:04.618Z,76.28
2022-12-04T13:28:40.169Z,85.32
2022-12-04T13:31:33.631Z,73.95
2022-12-04T13:34:45.049Z,80.82
2022-12-04T13:37:29.808Z,75.78
2022-12-04T13:40:18.432Z,87.50
2022-12-04T13:42:45.723Z,74.43
2022-12-04T13:45:28.428Z,78.88
2022-12-04T13:48:00.850Z,77.10
2022-12-04T13:50:34.361Z,71.88
2022-12-04T13:53:01.526Z,77.57
2022-12-04T13:55:39.846Z,88.88
2022-12-04T13:58:12.706Z,82.45
2022-12-04T14:00:44.333Z,100.72
2022-12-04T14:03:29.840Z,78.00
2022-12-04T14:05:57.070Z,80.75
2022-12-04T14:08:26.220Z,90.43
2022-12-04T14:11:03.016Z,81.50
2022-12-04T14:13:56.464Z,82.30
2022-12-04T14:16:40.016Z,77.03
2022-12-04T14:19:08.122Z,75.90
2022-12-04T14:21:46.384Z,79.97
2022-12-04T14:24:37.015Z,76.38
2022-12-04T14:27:33.942Z,80.05
2022-12-04T14:30:01.667Z,74.05
2022-12-04T14:32:33.685Z,82.68
2022-12-04T14:35:01.886Z,88.13
2022-12-04T14:37:37.617Z,75.05
2022-12-04T14:40:07.567Z,79.72
2022-12-04T14:42:38.168Z,77.97
2022-12-04T14:45:29.123Z,81.30
2022-12-04T14:48:04.212Z,78.97
2022-12-04T14:51:05.153Z,82.40
2022-12-04T14:54:01.166Z,85.30
2022-12-04T14:56:49.573Z,80.55
2022-12-04T14:59:22.328Z,80.97
2022-12-04T15:01:51.208Z,77.75
2022-12-04T15:04:29.121Z,78.20
2022-12-04T15:07:00.214Z,74.53
2022-12-04T15:09:47.110Z,79.65
2022-12-04T15:12:34.474Z,81.43
2022-12-04T15:15:06.837Z,71.22
2022-12-04T15:17:33.656Z,82.20
2022-12-04T15:20:18.319Z,87.30
2022-12-04T15:22:45.659Z,72.55
2022-12-04T15:25:22.557Z,83.30
2022-12-04T15:27:53.559Z,81.72
2022-12-04T15:30:23.126Z,81.65
2022-12-04T15:32:53.548Z,80.05
2022-12-04T15:35:32.256Z,86.00
2022-12-04T15:37:59.969Z,78.88
2022-12-04T15:40:29.535Z,85.45
2022-12-04T15:43:13.626Z,89.72
2022-12-04T15:45:41.121Z,86.65
2022-12-04T15:48:08.009Z,85.50
2022-12-04T15:50:35.049Z,89.43
2022-12-04T15:53:26.995Z,82.88
2022-12-04T15:55:58.737Z,84.07
2022-12-04T15:58:39.682Z,74.20
2022-12-04T16:01:07.973Z,78.85
2022-12-04T16:03:43.991Z,84.72
2022-12-04T16:06:18.808Z,94.45
2022-12-04T16:08:55.177Z,90.30
2022-12-04T16:11:22.666Z,98.03
2022-12-04T16:14:01.935Z,91.60
2022-12-04T16:16:29.225Z,90.07
2022-12-04T16:18:56.429Z,93.50
2022-12-04T16:21:30.002Z,100.75
2022-12-04T16:24:07.052Z,96.33
2022-12-04T16:26:34.425Z,98.00
2022-12-04T16:29:01.632Z,89.20
2022-12-04T16:31:28.701Z,82.82
2022-12-04T16:33:55.696Z,99.15
2022-12-04T16:36:22.523Z,95.32
2022-12-04T16:38:50.597Z,95.80
2022-12-04T16:41:19.036Z,96.10
2022-12-04T16:43:52.380Z,93.38
2022-12-04T16:46:20.772Z,102.20
2022-12-04T16:48:47.625Z,97.63
2022-12-04T16:51:26.372Z,102.20
2022-12-04T16:53:54.141Z,100.47
2022-12-04T16:56:21.448Z,87.70
2022-12-04T16:58:49.045Z,96.90
2022-12-04T17:01:28.551Z,98.15
2022-12-04T17:03:55.507Z,95.53
2022-12-04T17:06:22.553Z,110.47
2022-12-04T17:08:49.459Z,113.10
2022-12-04T17:11:17.653Z,100.70
2022-12-04T17:13:45.120Z,91.13
2022-12-04T17:16:14.956Z,91.93
2022-12-04T17:18:43.461Z,77.47
2022-12-04T17:21:12.790Z,92.53
2022-12-04T17:23:40.342Z,92.30
2022-12-04T17:26:13.100Z,86.57
2022-12-04T17:28:40.472Z,87.50
2022-12-04T17:31:19.443Z,90.55
2022-12-04T17:33:46.661Z,92.90
2022-12-04T17:36:16.466Z,81.85
2022-12-04T17:38:43.901Z,88.88
2022-12-04T17:41:14.074Z,91.00
2022-12-04T17:43:42.706Z,91.05
2022-12-04T17:46:15.018Z,96.28
2022-12-04T17:48:42.332Z,84.95
2022-12-04T17:51:12.071Z,83.68
2022-12-04T17:53:39.547Z,93.28
2022-12-04T17:56:17.511Z,99.97
2022-12-04T17:58:46.785Z,104.95
2022-12-04T18:01:17.625Z,90.82
2022-12-04T18:03:48.867Z,105.85
2022-12-04T18:06:21.922Z,93.57
2022-12-04T18:08:50.449Z,100.20
2022-12-04T18:11:20.773Z,110.30
2022-12-04T18:13:56.530Z,95.18
2022-12-04T18:16:24.551Z,97.10
2022-12-04T18:18:54.540Z,90.97
2022-12-04T18:21:21.752Z,96.05
2022-12-04T18:23:48.807Z,98.55
2022-12-04T18:26:22.220Z,96.03
2022-12-04T18:28:50.030Z,86.25
2022-12-04T18:31:19.312Z,96.97
2022-12-04T18:33:46.461Z,95.32
2022-12-04T18:36:16.533Z,106.53
2022-12-04T18:38:44.127Z,98.72
2022-12-04T18:41:12.563Z,96.03
2022-12-04T18:43:42.154Z,100.28
2022-12-04T18:46:14.839Z,105.38
2022-12-04T18:48:42.547Z,95.95
2022-12-04T18:51:18.620Z,102.22
2022-12-04T18:53:45.804Z,100.60
2022-12-04T18:56:12.762Z,80.03
2022-12-04T18:58:39.662Z,82.53
2022-12-04T19:01:14.299Z,97.53
2022-12-04T19:03:42.181Z,87.03
2022-12-04T19:06:09.630Z,99.10
2022-12-04T19:08:41.534Z,101.50
2022-12-04T19:11:15.419Z,90.93
2022-12-04T19:13:42.579Z,99.93
2022-12-04T19:16:14.329Z,96.90
2022-12-04T19:18:42.448Z,95.82
2022-12-04T19:21:09.335Z,89.13
2022-12-04T19:23:36.201Z,96.40
2022-12-04T19:26:03.415Z,89.93
2022-12-04T19:28:30.530Z,90.20
2022-12-04T19:30:58.134Z,97.43
2022-12-04T19:33:25.411Z,106.55
2022-12-04T19:36:05.222Z,88.20
2022-12-04T19:38:33.891Z,102.32
2022-12-04T19:41:09.420Z,94.80
2022-12-04T19:43:38.014Z,92.45
2022-12-04T19:46:05.492Z,101.90
2022-12-04T19:48:32.388Z,104.55
2022-12-04T19:51:07.088Z,96.43
2022-12-04T19:53:39.284Z,107.28
2022-12-04T19:56:16.350Z,98.10
2022-12-04T20:02:24.139Z,104.18
2022-12-04T20:04:50.997Z,102.95
2022-12-04T20:07:20.138Z,108.00
2022-12-04T20:09:51.956Z,99.65
2022-12-04T20:12:19.660Z,104.63
2022-12-04T20:14:46.545Z,104.72
2022-12-04T20:17:13.601Z,103.30
2022-12-04T20:19:40.713Z,101.63
2022-12-04T20:22:07.569Z,99.47
2022-12-04T20:24:34.370Z,114.63
2022-12-04T20:27:03.103Z,103.63
2022-12-04T20:29:29.988Z,118.30
2022-12-04T20:31:56.955Z,97.30
2022-12-04T20:34:23.835Z,102.03
2022-12-04T20:36:50.704Z,111.07
2022-12-04T20:39:19.074Z,110.82
2022-12-04T20:41:46.543Z,97.10
2022-12-04T20:44:16.389Z,100.60
2022-12-04T20:46:43.681Z,102.03
2022-12-04T20:49:20.645Z,110.32
2022-12-04T20:51:49.585Z,102.10
2022-12-04T20:54:19.032Z,108.68
2022-12-04T20:56:48.683Z,101.75
2022-12-04T20:59:17.129Z,94.78
2022-12-04T21:01:44.084Z,99.65
2022-12-04T21:04:12.831Z,97.03
2022-12-04T21:06:41.092Z,87.10
2022-12-04T21:09:11.760Z,101.78
2022-12-04T21:11:44.488Z,109.63
2022-12-04T21:14:36.313Z,89.97
2022-12-04T21:17:04.637Z,90.55
2022-12-04T21:19:32.223Z,83.47
2022-12-04T21:21:59.323Z,90.65
2022-12-04T21:24:27.987Z,85.78
2022-12-04T21:26:56.222Z,81.65
2022-12-04T21:29:23.502Z,92.32
2022-12-04T21:31:50.522Z,84.38
2022-12-04T21:34:18.144Z,87.15
2022-12-04T21:36:46.354Z,87.95
2022-12-04T21:39:14.711Z,83.60
2022-12-04T21:42:00.796Z,75.18
2022-12-04T21:44:27.741Z,80.22
2022-12-04T21:46:54.634Z,79.90
2022-12-04T21:49:21.591Z,79.22
2022-12-04T21:51:57.761Z,75.22
2022-12-04T21:54:28.585Z,76.80
2022-12-04T21:56:55.947Z,74.10
2022-12-04T22:03:13.367Z,74.07
2022-12-04T22:05:43.967Z,84.72
2022-12-04T22:08:12.758Z,80.25
2022-12-04T22:10:42.057Z,81.00
2022-12-04T22:13:09.434Z,81.47
2022-12-04T22:15:39.288Z,84.32
2022-12-04T22:18:10.141Z,63.58
2022-12-04T22:20:43.233Z,68.65
2022-12-04T22:23:10.611Z,68.72
2022-12-04T22:25:40.865Z,70.13
2022-12-04T22:28:07.705Z,59.45
2022-12-04T22:30:34.789Z,82.43
2022-12-04T22:33:01.655Z,79.35
2022-12-04T22:35:28.643Z,85.38
2022-12-04T22:37:55.631Z,72.95
2022-12-04T22:40:22.422Z,73.82
2022-12-04T22:42:49.286Z,80.80
2022-12-04T22:45:16.261Z,72.45
2022-12-04T22:47:45.600Z,75.07
2022-12-04T22:50:12.612Z,69.82
2022-12-04T22:52:39.495Z,73.88
2022-12-04T22:55:06.679Z,75.43
2022-12-04T22:57:34.501Z,70.40
2022-12-04T23:00:01.383Z,68.85
2022-12-04T23:02:28.167Z,70.85
2022-12-04T23:04:55.065Z,75.25
2022-12-04T23:07:21.925Z,73.82
2022-12-04T23:09:48.823Z,72.20
2022-12-04T23:12:16.291Z,71.68
2022-12-04T23:14:43.139Z,66.15
2022-12-04T23:17:10.046Z,67.00
2022-12-04T23:19:37.325Z,76.32
2022-12-04T23:22:04.159Z,73.43
2022-12-04T23:24:30.980Z,75.72
2022-12-04T23:26:57.836Z,77.78
2022-12-04T23:32:11.663Z,77.75
2022-12-04T23:34:39.123Z,71.72
2022-12-04T23:37:05.945Z,73.53
2022-12-04T23:39:32.765Z,63.80
2022-12-04T23:41:59.599Z,72.82
2022-12-04T23:44:26.490Z,68.07
2022-12-04T23:46:53.415Z,64.95
2022-12-04T23:49:20.299Z,63.88
2022-12-04T23:51:47.182Z,68.18
2022-12-04T23:54:14.088Z,59.47
2022-12-04T23:56:40.920Z,53.85
2022-12-04T23:59:07.777Z,71.72
